sensor_id;sensor_type;location;lat;lon;timestamp;P1;durP1;ratioP1;P2;durP2;ratioP2
9080;SDS011;13509;50.760;6.080;2023-02-27T00:00:08;3.23;;;2.00;;
9080;SDS011;13509;50.760;6.080;2023-02-27T00:02:40;5.20;;;2.50;;
9080;SDS011;13509;50.760;6.080;2023-02-27T00:05:08;4.57;;;2.20;;
9080;SDS011;13509;50.760;6.080;2023-02-27T00:07:37;4.23;;;2.37;;
9080;SDS011;13509;50.760;6.080;2023-02-27T00:10:05;3.60;;;1.83;;
9080;SDS011;13509;50.760;6.080;2023-02-27T00:12:35;4.63;;;1.97;;
9080;SDS011;13509;50.760;6.080;2023-02-27T00:15:04;3.67;;;2.40;;
9080;SDS011;13509;50.760;6.080;2023-02-27T00:17:33;4.20;;;2.43;;
9080;SDS011;13509;50.760;6.080;2023-02-27T00:20:01;3.73;;;2.10;;
9080;SDS011;13509;50.760;6.080;2023-02-27T00:22:30;3.13;;;1.97;;
9080;SDS011;13509;50.760;6.080;2023-02-27T00:24:58;2.17;;;1.80;;
9080;SDS011;13509;50.760;6.080;2023-02-27T00:27:26;2.93;;;1.80;;
9080;SDS011;13509;50.760;6.080;2023-02-27T00:29:55;3.00;;;1.90;;
9080;SDS011;13509;50.760;6.080;2023-02-27T00:32:24;3.10;;;2.23;;
9080;SDS011;13509;50.760;6.080;2023-02-27T00:34:52;2.03;;;1.83;;
9080;SDS011;13509;50.760;6.080;2023-02-27T00:37:20;4.63;;;2.30;;
9080;SDS011;13509;50.760;6.080;2023-02-27T00:39:48;2.13;;;1.57;;
9080;SDS011;13509;50.760;6.080;2023-02-27T00:42:16;2.47;;;2.00;;
9080;SDS011;13509;50.760;6.080;2023-02-27T00:44:44;3.60;;;2.00;;
9080;SDS011;13509;50.760;6.080;2023-02-27T00:47:14;3.07;;;1.83;;
9080;SDS011;13509;50.760;6.080;2023-02-27T00:49:42;3.00;;;1.93;;
9080;SDS011;13509;50.760;6.080;2023-02-27T00:52:10;5.13;;;2.30;;
9080;SDS011;13509;50.760;6.080;2023-02-27T00:54:39;2.63;;;2.13;;
9080;SDS011;13509;50.760;6.080;2023-02-27T00:57:07;2.90;;;2.10;;
9080;SDS011;13509;50.760;6.080;2023-02-27T00:59:35;4.17;;;1.83;;
9080;SDS011;13509;50.760;6.080;2023-02-27T01:02:03;3.23;;;2.00;;
9080;SDS011;13509;50.760;6.080;2023-02-27T01:04:33;4.57;;;2.23;;
9080;SDS011;13509;50.760;6.080;2023-02-27T01:07:01;3.97;;;1.83;;
9080;SDS011;13509;50.760;6.080;2023-02-27T01:09:30;3.20;;;2.00;;
9080;SDS011;13509;50.760;6.080;2023-02-27T01:11:58;3.40;;;1.87;;
9080;SDS011;13509;50.760;6.080;2023-02-27T01:14:26;2.17;;;1.60;;
9080;SDS011;13509;50.760;6.080;2023-02-27T01:16:54;2.20;;;1.97;;
9080;SDS011;13509;50.760;6.080;2023-02-27T01:19:23;2.47;;;2.27;;
9080;SDS011;13509;50.760;6.080;2023-02-27T01:21:52;1.77;;;1.60;;
9080;SDS011;13509;50.760;6.080;2023-02-27T01:24:21;5.03;;;2.23;;
9080;SDS011;13509;50.760;6.080;2023-02-27T01:26:49;2.00;;;1.87;;
9080;SDS011;13509;50.760;6.080;2023-02-27T01:29:18;4.40;;;2.30;;
9080;SDS011;13509;50.760;6.080;2023-02-27T01:31:46;5.17;;;2.00;;
9080;SDS011;13509;50.760;6.080;2023-02-27T01:34:14;3.23;;;2.23;;
9080;SDS011;13509;50.760;6.080;2023-02-27T01:36:43;3.10;;;2.10;;
9080;SDS011;13509;50.760;6.080;2023-02-27T01:39:12;3.87;;;2.67;;
9080;SDS011;13509;50.760;6.080;2023-02-27T01:41:41;4.17;;;2.40;;
9080;SDS011;13509;50.760;6.080;2023-02-27T01:44:10;3.50;;;2.10;;
9080;SDS011;13509;50.760;6.080;2023-02-27T01:46:39;2.20;;;1.97;;
9080;SDS011;13509;50.760;6.080;2023-02-27T01:49:08;2.80;;;2.00;;
9080;SDS011;13509;50.760;6.080;2023-02-27T01:51:39;3.00;;;2.00;;
9080;SDS011;13509;50.760;6.080;2023-02-27T01:54:09;5.40;;;2.10;;
9080;SDS011;13509;50.760;6.080;2023-02-27T01:56:39;6.17;;;2.17;;
9080;SDS011;13509;50.760;6.080;2023-02-27T01:59:08;3.37;;;2.20;;
9080;SDS011;13509;50.760;6.080;2023-02-27T02:01:37;3.47;;;1.83;;
9080;SDS011;13509;50.760;6.080;2023-02-27T02:04:08;4.73;;;2.40;;
9080;SDS011;13509;50.760;6.080;2023-02-27T02:06:38;3.57;;;1.63;;
9080;SDS011;13509;50.760;6.080;2023-02-27T02:09:07;5.03;;;2.23;;
9080;SDS011;13509;50.760;6.080;2023-02-27T02:11:36;2.30;;;2.10;;
9080;SDS011;13509;50.760;6.080;2023-02-27T02:14:06;5.77;;;2.37;;
9080;SDS011;13509;50.760;6.080;2023-02-27T02:22:15;4.60;;;2.20;;
9080;SDS011;13509;50.760;6.080;2023-02-27T02:24:58;3.40;;;2.17;;
9080;SDS011;13509;50.760;6.080;2023-02-27T02:27:33;4.07;;;2.30;;
9080;SDS011;13509;50.760;6.080;2023-02-27T02:36:06;5.30;;;2.40;;
9080;SDS011;13509;50.760;6.080;2023-02-27T02:41:39;3.23;;;2.10;;
9080;SDS011;13509;50.760;6.080;2023-02-27T02:44:14;4.33;;;2.40;;
9080;SDS011;13509;50.760;6.080;2023-02-27T02:46:46;3.10;;;2.37;;
9080;SDS011;13509;50.760;6.080;2023-02-27T02:49:21;2.43;;;2.10;;
9080;SDS011;13509;50.760;6.080;2023-02-27T02:51:54;6.03;;;2.70;;
9080;SDS011;13509;50.760;6.080;2023-02-27T02:54:27;3.70;;;2.03;;
9080;SDS011;13509;50.760;6.080;2023-02-27T02:57:01;3.17;;;2.23;;
9080;SDS011;13509;50.760;6.080;2023-02-27T02:59:32;3.43;;;2.20;;
9080;SDS011;13509;50.760;6.080;2023-02-27T03:02:03;4.07;;;2.60;;
9080;SDS011;13509;50.760;6.080;2023-02-27T03:04:34;4.27;;;2.17;;
9080;SDS011;13509;50.760;6.080;2023-02-27T03:07:05;4.20;;;2.03;;
9080;SDS011;13509;50.760;6.080;2023-02-27T03:09:36;5.97;;;2.33;;
9080;SDS011;13509;50.760;6.080;2023-02-27T03:12:07;3.83;;;2.60;;
9080;SDS011;13509;50.760;6.080;2023-02-27T03:14:38;4.77;;;2.23;;
9080;SDS011;13509;50.760;6.080;2023-02-27T03:17:08;4.10;;;2.40;;
9080;SDS011;13509;50.760;6.080;2023-02-27T03:19:39;2.77;;;2.43;;
9080;SDS011;13509;50.760;6.080;2023-02-27T03:22:08;6.37;;;2.20;;
9080;SDS011;13509;50.760;6.080;2023-02-27T03:24:37;3.63;;;2.50;;
9080;SDS011;13509;50.760;6.080;2023-02-27T03:27:08;5.20;;;2.43;;
9080;SDS011;13509;50.760;6.080;2023-02-27T03:29:37;5.03;;;2.47;;
9080;SDS011;13509;50.760;6.080;2023-02-27T03:32:08;3.63;;;2.13;;
9080;SDS011;13509;50.760;6.080;2023-02-27T03:34:39;3.87;;;2.70;;
9080;SDS011;13509;50.760;6.080;2023-02-27T03:37:12;6.80;;;2.60;;
9080;SDS011;13509;50.760;6.080;2023-02-27T03:39:43;4.13;;;2.73;;
9080;SDS011;13509;50.760;6.080;2023-02-27T03:42:16;6.03;;;2.87;;
9080;SDS011;13509;50.760;6.080;2023-02-27T03:44:49;4.90;;;2.50;;
9080;SDS011;13509;50.760;6.080;2023-02-27T03:47:19;5.80;;;2.80;;
9080;SDS011;13509;50.760;6.080;2023-02-27T03:49:48;3.97;;;2.43;;
9080;SDS011;13509;50.760;6.080;2023-02-27T03:52:17;2.97;;;2.50;;
9080;SDS011;13509;50.760;6.080;2023-02-27T03:54:46;5.17;;;2.67;;
9080;SDS011;13509;50.760;6.080;2023-02-27T03:57:18;5.40;;;2.60;;
9080;SDS011;13509;50.760;6.080;2023-02-27T03:59:47;4.67;;;2.60;;
9080;SDS011;13509;50.760;6.080;2023-02-27T04:02:15;4.30;;;2.50;;
9080;SDS011;13509;50.760;6.080;2023-02-27T04:04:43;3.67;;;2.50;;
9080;SDS011;13509;50.760;6.080;2023-02-27T04:07:14;3.67;;;2.50;;
9080;SDS011;13509;50.760;6.080;2023-02-27T04:09:52;9.27;;;3.57;;
9080;SDS011;13509;50.760;6.080;2023-02-27T04:12:28;4.23;;;2.83;;
9080;SDS011;13509;50.760;6.080;2023-02-27T04:15:03;5.13;;;2.77;;
9080;SDS011;13509;50.760;6.080;2023-02-27T04:17:36;4.83;;;2.90;;
9080;SDS011;13509;50.760;6.080;2023-02-27T04:22:54;3.63;;;2.70;;
9080;SDS011;13509;50.760;6.080;2023-02-27T04:28:16;5.73;;;3.00;;
9080;SDS011;13509;50.760;6.080;2023-02-27T04:30:46;6.50;;;2.83;;
9080;SDS011;13509;50.760;6.080;2023-02-27T04:33:20;4.97;;;3.17;;
9080;SDS011;13509;50.760;6.080;2023-02-27T04:35:51;6.30;;;3.23;;
9080;SDS011;13509;50.760;6.080;2023-02-27T04:38:22;7.43;;;2.87;;
9080;SDS011;13509;50.760;6.080;2023-02-27T04:40:53;4.03;;;2.63;;
9080;SDS011;13509;50.760;6.080;2023-02-27T04:43:25;4.13;;;2.87;;
9080;SDS011;13509;50.760;6.080;2023-02-27T04:45:54;4.17;;;2.93;;
9080;SDS011;13509;50.760;6.080;2023-02-27T04:48:24;7.23;;;3.27;;
9080;SDS011;13509;50.760;6.080;2023-02-27T04:50:54;4.67;;;3.37;;
9080;SDS011;13509;50.760;6.080;2023-02-27T04:53:24;9.23;;;3.47;;
9080;SDS011;13509;50.760;6.080;2023-02-27T04:55:54;5.30;;;2.77;;
9080;SDS011;13509;50.760;6.080;2023-02-27T04:58:25;6.43;;;3.00;;
9080;SDS011;13509;50.760;6.080;2023-02-27T05:00:56;3.57;;;2.70;;
9080;SDS011;13509;50.760;6.080;2023-02-27T05:03:27;6.87;;;3.37;;
9080;SDS011;13509;50.760;6.080;2023-02-27T05:05:57;8.03;;;3.03;;
9080;SDS011;13509;50.760;6.080;2023-02-27T05:08:28;5.33;;;2.90;;
9080;SDS011;13509;50.760;6.080;2023-02-27T05:10:57;4.83;;;3.00;;
9080;SDS011;13509;50.760;6.080;2023-02-27T05:13:28;3.57;;;2.77;;
9080;SDS011;13509;50.760;6.080;2023-02-27T05:16:00;4.97;;;2.87;;
9080;SDS011;13509;50.760;6.080;2023-02-27T05:18:30;3.53;;;2.50;;
9080;SDS011;13509;50.760;6.080;2023-02-27T05:21:00;4.70;;;2.90;;
9080;SDS011;13509;50.760;6.080;2023-02-27T05:23:35;6.43;;;3.10;;
9080;SDS011;13509;50.760;6.080;2023-02-27T05:26:08;5.77;;;2.87;;
9080;SDS011;13509;50.760;6.080;2023-02-27T05:28:40;3.63;;;3.03;;
9080;SDS011;13509;50.760;6.080;2023-02-27T05:31:14;8.83;;;3.17;;
9080;SDS011;13509;50.760;6.080;2023-02-27T05:33:46;4.57;;;2.73;;
9080;SDS011;13509;50.760;6.080;2023-02-27T05:36:16;4.50;;;3.40;;
9080;SDS011;13509;50.760;6.080;2023-02-27T05:38:46;7.57;;;3.30;;
9080;SDS011;13509;50.760;6.080;2023-02-27T05:41:17;5.13;;;3.20;;
9080;SDS011;13509;50.760;6.080;2023-02-27T05:43:48;7.77;;;3.57;;
9080;SDS011;13509;50.760;6.080;2023-02-27T05:46:18;8.73;;;3.37;;
9080;SDS011;13509;50.760;6.080;2023-02-27T05:48:48;6.43;;;3.57;;
9080;SDS011;13509;50.760;6.080;2023-02-27T05:51:19;3.37;;;2.77;;
9080;SDS011;13509;50.760;6.080;2023-02-27T05:53:49;5.30;;;3.13;;
9080;SDS011;13509;50.760;6.080;2023-02-27T05:56:20;4.83;;;3.13;;
9080;SDS011;13509;50.760;6.080;2023-02-27T05:58:53;7.10;;;3.47;;
9080;SDS011;13509;50.760;6.080;2023-02-27T06:01:22;4.83;;;3.70;;
9080;SDS011;13509;50.760;6.080;2023-02-27T06:03:50;7.37;;;3.23;;
9080;SDS011;13509;50.760;6.080;2023-02-27T06:06:19;6.47;;;3.63;;
9080;SDS011;13509;50.760;6.080;2023-02-27T06:08:47;9.20;;;3.80;;
9080;SDS011;13509;50.760;6.080;2023-02-27T06:11:15;7.43;;;3.80;;
9080;SDS011;13509;50.760;6.080;2023-02-27T06:13:44;7.43;;;4.10;;
9080;SDS011;13509;50.760;6.080;2023-02-27T06:16:13;6.37;;;4.13;;
9080;SDS011;13509;50.760;6.080;2023-02-27T06:18:42;6.97;;;4.13;;
9080;SDS011;13509;50.760;6.080;2023-02-27T06:21:11;4.70;;;3.70;;
9080;SDS011;13509;50.760;6.080;2023-02-27T06:23:39;4.80;;;3.70;;
9080;SDS011;13509;50.760;6.080;2023-02-27T06:26:07;5.30;;;3.30;;
9080;SDS011;13509;50.760;6.080;2023-02-27T06:28:39;9.87;;;3.97;;
9080;SDS011;13509;50.760;6.080;2023-02-27T06:31:07;5.33;;;3.50;;
9080;SDS011;13509;50.760;6.080;2023-02-27T06:33:37;7.73;;;3.40;;
9080;SDS011;13509;50.760;6.080;2023-02-27T06:36:05;5.40;;;3.13;;
9080;SDS011;13509;50.760;6.080;2023-02-27T06:38:33;6.30;;;3.70;;
9080;SDS011;13509;50.760;6.080;2023-02-27T06:41:02;5.97;;;3.87;;
9080;SDS011;13509;50.760;6.080;2023-02-27T06:43:30;6.67;;;3.73;;
9080;SDS011;13509;50.760;6.080;2023-02-27T06:46:00;6.13;;;3.67;;
9080;SDS011;13509;50.760;6.080;2023-02-27T06:48:28;6.13;;;3.80;;
9080;SDS011;13509;50.760;6.080;2023-02-27T06:50:57;7.50;;;3.43;;
9080;SDS011;13509;50.760;6.080;2023-02-27T06:53:26;7.03;;;4.17;;
9080;SDS011;13509;50.760;6.080;2023-02-27T06:55:54;7.37;;;4.00;;
9080;SDS011;13509;50.760;6.080;2023-02-27T06:58:22;5.60;;;3.87;;
9080;SDS011;13509;50.760;6.080;2023-02-27T07:00:50;8.67;;;4.40;;
9080;SDS011;13509;50.760;6.080;2023-02-27T07:03:19;9.63;;;4.13;;
9080;SDS011;13509;50.760;6.080;2023-02-27T07:05:47;7.70;;;4.23;;
9080;SDS011;13509;50.760;6.080;2023-02-27T07:08:17;9.20;;;4.20;;
9080;SDS011;13509;50.760;6.080;2023-02-27T07:10:45;6.43;;;4.37;;
9080;SDS011;13509;50.760;6.080;2023-02-27T07:13:14;10.93;;;4.30;;
9080;SDS011;13509;50.760;6.080;2023-02-27T07:15:44;7.33;;;4.30;;
9080;SDS011;13509;50.760;6.080;2023-02-27T07:18:13;7.90;;;3.80;;
9080;SDS011;13509;50.760;6.080;2023-02-27T07:20:41;6.27;;;3.90;;
9080;SDS011;13509;50.760;6.080;2023-02-27T07:23:09;8.77;;;3.80;;
9080;SDS011;13509;50.760;6.080;2023-02-27T07:25:39;5.57;;;3.80;;
9080;SDS011;13509;50.760;6.080;2023-02-27T07:28:07;9.03;;;4.37;;
9080;SDS011;13509;50.760;6.080;2023-02-27T07:30:35;9.63;;;4.03;;
9080;SDS011;13509;50.760;6.080;2023-02-27T07:33:04;8.17;;;4.70;;
9080;SDS011;13509;50.760;6.080;2023-02-27T07:35:32;8.63;;;4.60;;
9080;SDS011;13509;50.760;6.080;2023-02-27T07:38:00;8.23;;;4.10;;
9080;SDS011;13509;50.760;6.080;2023-02-27T07:40:28;11.70;;;4.20;;
9080;SDS011;13509;50.760;6.080;2023-02-27T07:42:58;6.53;;;4.07;;
9080;SDS011;13509;50.760;6.080;2023-02-27T07:45:26;5.27;;;4.00;;
9080;SDS011;13509;50.760;6.080;2023-02-27T07:47:54;8.03;;;3.60;;
9080;SDS011;13509;50.760;6.080;2023-02-27T07:50:23;10.17;;;4.00;;
9080;SDS011;13509;50.760;6.080;2023-02-27T07:52:51;6.80;;;3.63;;
9080;SDS011;13509;50.760;6.080;2023-02-27T07:55:19;4.87;;;3.73;;
9080;SDS011;13509;50.760;6.080;2023-02-27T07:57:47;8.43;;;3.50;;
9080;SDS011;13509;50.760;6.080;2023-02-27T08:00:17;7.93;;;3.20;;
9080;SDS011;13509;50.760;6.080;2023-02-27T08:02:45;6.43;;;3.40;;
9080;SDS011;13509;50.760;6.080;2023-02-27T08:05:14;7.13;;;3.27;;
9080;SDS011;13509;50.760;6.080;2023-02-27T08:07:42;8.63;;;3.70;;
9080;SDS011;13509;50.760;6.080;2023-02-27T08:10:10;5.50;;;3.23;;
9080;SDS011;13509;50.760;6.080;2023-02-27T08:12:41;6.43;;;3.37;;
9080;SDS011;13509;50.760;6.080;2023-02-27T08:15:10;4.93;;;3.80;;
9080;SDS011;13509;50.760;6.080;2023-02-27T08:17:39;4.80;;;3.60;;
9080;SDS011;13509;50.760;6.080;2023-02-27T08:20:08;8.13;;;3.43;;
9080;SDS011;13509;50.760;6.080;2023-02-27T08:22:38;9.67;;;3.30;;
9080;SDS011;13509;50.760;6.080;2023-02-27T08:25:07;5.70;;;2.77;;
9080;SDS011;13509;50.760;6.080;2023-02-27T08:27:36;6.13;;;3.20;;
9080;SDS011;13509;50.760;6.080;2023-02-27T08:30:05;5.90;;;3.30;;
9080;SDS011;13509;50.760;6.080;2023-02-27T08:32:34;5.40;;;2.83;;
9080;SDS011;13509;50.760;6.080;2023-02-27T08:35:04;5.47;;;2.83;;
9080;SDS011;13509;50.760;6.080;2023-02-27T08:37:32;4.13;;;2.67;;
9080;SDS011;13509;50.760;6.080;2023-02-27T08:40:00;7.50;;;3.07;;
9080;SDS011;13509;50.760;6.080;2023-02-27T08:42:29;4.47;;;2.90;;
9080;SDS011;13509;50.760;6.080;2023-02-27T08:44:57;6.77;;;3.10;;
9080;SDS011;13509;50.760;6.080;2023-02-27T08:47:25;4.77;;;3.27;;
9080;SDS011;13509;50.760;6.080;2023-02-27T08:49:54;5.50;;;2.70;;
9080;SDS011;13509;50.760;6.080;2023-02-27T08:52:23;5.40;;;3.30;;
9080;SDS011;13509;50.760;6.080;2023-02-27T08:54:52;6.13;;;2.80;;
9080;SDS011;13509;50.760;6.080;2023-02-27T08:57:20;2.97;;;2.53;;
9080;SDS011;13509;50.760;6.080;2023-02-27T08:59:48;3.87;;;2.80;;
9080;SDS011;13509;50.760;6.080;2023-02-27T09:02:16;4.40;;;2.30;;
9080;SDS011;13509;50.760;6.080;2023-02-27T09:04:44;5.43;;;2.60;;
9080;SDS011;13509;50.760;6.080;2023-02-27T09:07:13;4.33;;;2.57;;
9080;SDS011;13509;50.760;6.080;2023-02-27T09:09:42;3.73;;;2.60;;
9080;SDS011;13509;50.760;6.080;2023-02-27T09:12:10;4.23;;;2.40;;
9080;SDS011;13509;50.760;6.080;2023-02-27T09:14:38;3.60;;;2.53;;
9080;SDS011;13509;50.760;6.080;2023-02-27T09:17:07;6.60;;;2.60;;
9080;SDS011;13509;50.760;6.080;2023-02-27T09:19:35;6.13;;;2.40;;
9080;SDS011;13509;50.760;6.080;2023-02-27T09:22:03;5.77;;;2.40;;
9080;SDS011;13509;50.760;6.080;2023-02-27T09:24:31;5.57;;;2.93;;
9080;SDS011;13509;50.760;6.080;2023-02-27T09:27:01;5.17;;;2.50;;
9080;SDS011;13509;50.760;6.080;2023-02-27T09:29:29;5.10;;;3.23;;
9080;SDS011;13509;50.760;6.080;2023-02-27T09:31:57;8.83;;;2.93;;
9080;SDS011;13509;50.760;6.080;2023-02-27T09:34:26;4.03;;;2.57;;
9080;SDS011;13509;50.760;6.080;2023-02-27T09:36:57;7.00;;;3.10;;
9080;SDS011;13509;50.760;6.080;2023-02-27T09:39:25;4.77;;;2.83;;
9080;SDS011;13509;50.760;6.080;2023-02-27T09:41:58;5.30;;;2.83;;
9080;SDS011;13509;50.760;6.080;2023-02-27T09:44:34;6.50;;;2.80;;
9080;SDS011;13509;50.760;6.080;2023-02-27T09:47:13;3.23;;;2.50;;
9080;SDS011;13509;50.760;6.080;2023-02-27T09:49:46;6.83;;;2.70;;
9080;SDS011;13509;50.760;6.080;2023-02-27T09:52:16;3.97;;;2.43;;
9080;SDS011;13509;50.760;6.080;2023-02-27T09:54:44;5.80;;;2.47;;
9080;SDS011;13509;50.760;6.080;2023-02-27T09:57:14;5.83;;;2.17;;
9080;SDS011;13509;50.760;6.080;2023-02-27T09:59:45;5.50;;;2.70;;
9080;SDS011;13509;50.760;6.080;2023-02-27T10:02:19;7.07;;;2.30;;
9080;SDS011;13509;50.760;6.080;2023-02-27T10:04:50;2.97;;;2.17;;
9080;SDS011;13509;50.760;6.080;2023-02-27T10:07:21;4.37;;;2.17;;
9080;SDS011;13509;50.760;6.080;2023-02-27T10:09:55;3.63;;;2.20;;
9080;SDS011;13509;50.760;6.080;2023-02-27T10:12:29;5.60;;;2.40;;
9080;SDS011;13509;50.760;6.080;2023-02-27T10:15:07;3.87;;;1.90;;
9080;SDS011;13509;50.760;6.080;2023-02-27T10:17:37;3.13;;;2.00;;
9080;SDS011;13509;50.760;6.080;2023-02-27T10:20:08;4.77;;;1.70;;
9080;SDS011;13509;50.760;6.080;2023-02-27T10:22:38;3.80;;;1.73;;
9080;SDS011;13509;50.760;6.080;2023-02-27T10:25:10;1.43;;;1.10;;
9080;SDS011;13509;50.760;6.080;2023-02-27T10:27:57;1.83;;;1.10;;
9080;SDS011;13509;50.760;6.080;2023-02-27T10:30:30;1.23;;;1.13;;
9080;SDS011;13509;50.760;6.080;2023-02-27T10:33:04;2.70;;;1.60;;
9080;SDS011;13509;50.760;6.080;2023-02-27T10:35:35;4.23;;;1.37;;
9080;SDS011;13509;50.760;6.080;2023-02-27T10:38:05;4.47;;;1.60;;
9080;SDS011;13509;50.760;6.080;2023-02-27T10:40:35;1.77;;;1.10;;
9080;SDS011;13509;50.760;6.080;2023-02-27T10:43:03;3.13;;;1.43;;
9080;SDS011;13509;50.760;6.080;2023-02-27T10:45:33;3.33;;;1.57;;
9080;SDS011;13509;50.760;6.080;2023-02-27T10:48:04;7.43;;;1.40;;
9080;SDS011;13509;50.760;6.080;2023-02-27T10:50:34;1.60;;;1.50;;
9080;SDS011;13509;50.760;6.080;2023-02-27T10:53:05;1.77;;;1.30;;
9080;SDS011;13509;50.760;6.080;2023-02-27T10:55:35;3.17;;;1.80;;
9080;SDS011;13509;50.760;6.080;2023-02-27T10:58:04;2.07;;;1.37;;
9080;SDS011;13509;50.760;6.080;2023-02-27T11:00:37;6.60;;;1.90;;
9080;SDS011;13509;50.760;6.080;2023-02-27T11:03:15;2.30;;;1.40;;
9080;SDS011;13509;50.760;6.080;2023-02-27T11:05:52;2.43;;;1.60;;
9080;SDS011;13509;50.760;6.080;2023-02-27T11:08:22;3.57;;;1.83;;
9080;SDS011;13509;50.760;6.080;2023-02-27T11:10:52;2.00;;;1.50;;
9080;SDS011;13509;50.760;6.080;2023-02-27T11:13:21;4.53;;;1.90;;
9080;SDS011;13509;50.760;6.080;2023-02-27T11:16:02;2.83;;;1.87;;
9080;SDS011;13509;50.760;6.080;2023-02-27T11:18:32;3.83;;;1.40;;
9080;SDS011;13509;50.760;6.080;2023-02-27T11:21:11;4.17;;;1.80;;
9080;SDS011;13509;50.760;6.080;2023-02-27T11:23:48;3.27;;;1.40;;
9080;SDS011;13509;50.760;6.080;2023-02-27T11:26:18;4.53;;;1.90;;
9080;SDS011;13509;50.760;6.080;2023-02-27T11:28:54;3.70;;;1.90;;
9080;SDS011;13509;50.760;6.080;2023-02-27T11:31:31;5.00;;;1.53;;
9080;SDS011;13509;50.760;6.080;2023-02-27T11:34:00;3.17;;;1.60;;
9080;SDS011;13509;50.760;6.080;2023-02-27T11:36:40;2.70;;;1.50;;
9080;SDS011;13509;50.760;6.080;2023-02-27T11:39:17;2.93;;;1.50;;
9080;SDS011;13509;50.760;6.080;2023-02-27T11:41:47;2.20;;;1.73;;
9080;SDS011;13509;50.760;6.080;2023-02-27T11:44:16;3.90;;;1.63;;
9080;SDS011;13509;50.760;6.080;2023-02-27T11:47:11;5.23;;;1.97;;
9080;SDS011;13509;50.760;6.080;2023-02-27T11:49:55;3.57;;;1.70;;
9080;SDS011;13509;50.760;6.080;2023-02-27T11:52:28;3.80;;;1.87;;
9080;SDS011;13509;50.760;6.080;2023-02-27T11:54:59;3.53;;;2.10;;
9080;SDS011;13509;50.760;6.080;2023-02-27T11:57:30;3.07;;;1.93;;
9080;SDS011;13509;50.760;6.080;2023-02-27T12:00:00;5.23;;;2.47;;
9080;SDS011;13509;50.760;6.080;2023-02-27T12:02:36;3.00;;;2.40;;
9080;SDS011;13509;50.760;6.080;2023-02-27T12:05:08;4.00;;;2.70;;
9080;SDS011;13509;50.760;6.080;2023-02-27T12:07:41;4.83;;;2.53;;
9080;SDS011;13509;50.760;6.080;2023-02-27T12:10:13;5.73;;;2.60;;
9080;SDS011;13509;50.760;6.080;2023-02-27T12:12:44;5.53;;;3.00;;
9080;SDS011;13509;50.760;6.080;2023-02-27T12:15:16;3.87;;;3.00;;
9080;SDS011;13509;50.760;6.080;2023-02-27T12:17:48;4.77;;;2.87;;
9080;SDS011;13509;50.760;6.080;2023-02-27T12:23:14;4.00;;;3.03;;
9080;SDS011;13509;50.760;6.080;2023-02-27T12:25:44;6.67;;;3.23;;
9080;SDS011;13509;50.760;6.080;2023-02-27T12:28:25;3.33;;;2.80;;
9080;SDS011;13509;50.760;6.080;2023-02-27T12:30:59;3.40;;;2.97;;
9080;SDS011;13509;50.760;6.080;2023-02-27T12:33:33;6.33;;;3.20;;
9080;SDS011;13509;50.760;6.080;2023-02-27T12:36:03;4.70;;;3.43;;
9080;SDS011;13509;50.760;6.080;2023-02-27T12:38:31;5.47;;;3.23;;
9080;SDS011;13509;50.760;6.080;2023-02-27T12:41:06;5.87;;;3.00;;
9080;SDS011;13509;50.760;6.080;2023-02-27T12:43:37;4.60;;;3.10;;
9080;SDS011;13509;50.760;6.080;2023-02-27T12:46:22;5.03;;;3.13;;
9080;SDS011;13509;50.760;6.080;2023-02-27T12:48:57;7.70;;;3.73;;
9080;SDS011;13509;50.760;6.080;2023-02-27T12:51:34;9.60;;;2.77;;
9080;SDS011;13509;50.760;6.080;2023-02-27T12:54:17;6.50;;;3.13;;
9080;SDS011;13509;50.760;6.080;2023-02-27T12:56:49;6.97;;;2.57;;
9080;SDS011;13509;50.760;6.080;2023-02-27T12:59:23;4.23;;;2.47;;
9080;SDS011;13509;50.760;6.080;2023-02-27T13:01:56;5.33;;;2.43;;
9080;SDS011;13509;50.760;6.080;2023-02-27T13:04:30;5.30;;;2.83;;
9080;SDS011;13509;50.760;6.080;2023-02-27T13:07:03;2.83;;;2.10;;
9080;SDS011;13509;50.760;6.080;2023-02-27T13:09:36;3.07;;;2.20;;
9080;SDS011;13509;50.760;6.080;2023-02-27T13:12:09;4.20;;;2.10;;
9080;SDS011;13509;50.760;6.080;2023-02-27T13:14:40;2.97;;;1.63;;
9080;SDS011;13509;50.760;6.080;2023-02-27T13:17:11;4.97;;;1.90;;
9080;SDS011;13509;50.760;6.080;2023-02-27T13:19:44;4.50;;;1.73;;
9080;SDS011;13509;50.760;6.080;2023-02-27T13:22:14;9.77;;;2.27;;
9080;SDS011;13509;50.760;6.080;2023-02-27T13:24:46;2.90;;;1.77;;
9080;SDS011;13509;50.760;6.080;2023-02-27T13:27:18;2.83;;;1.80;;
9080;SDS011;13509;50.760;6.080;2023-02-27T13:29:51;4.00;;;1.90;;
9080;SDS011;13509;50.760;6.080;2023-02-27T13:32:23;3.23;;;1.83;;
9080;SDS011;13509;50.760;6.080;2023-02-27T13:38:00;5.37;;;1.93;;
9080;SDS011;13509;50.760;6.080;2023-02-27T13:40:32;3.50;;;1.70;;
9080;SDS011;13509;50.760;6.080;2023-02-27T13:43:01;5.67;;;1.80;;
9080;SDS011;13509;50.760;6.080;2023-02-27T13:45:50;2.83;;;1.80;;
9080;SDS011;13509;50.760;6.080;2023-02-27T13:48:38;3.07;;;1.43;;
9080;SDS011;13509;50.760;6.080;2023-02-27T13:51:07;5.87;;;1.80;;
9080;SDS011;13509;50.760;6.080;2023-02-27T13:53:38;3.47;;;1.60;;
9080;SDS011;13509;50.760;6.080;2023-02-27T13:56:19;5.07;;;2.00;;
9080;SDS011;13509;50.760;6.080;2023-02-27T13:58:48;4.80;;;1.90;;
9080;SDS011;13509;50.760;6.080;2023-02-27T14:01:17;2.90;;;1.70;;
9080;SDS011;13509;50.760;6.080;2023-02-27T14:03:52;3.93;;;1.70;;
9080;SDS011;13509;50.760;6.080;2023-02-27T14:06:22;2.93;;;1.60;;
9080;SDS011;13509;50.760;6.080;2023-02-27T14:08:52;4.07;;;2.10;;
9080;SDS011;13509;50.760;6.080;2023-02-27T14:11:39;2.40;;;1.70;;
9080;SDS011;13509;50.760;6.080;2023-02-27T14:14:07;2.20;;;1.77;;
9080;SDS011;13509;50.760;6.080;2023-02-27T14:16:55;2.83;;;1.70;;
9080;SDS011;13509;50.760;6.080;2023-02-27T14:19:25;2.03;;;1.70;;
9080;SDS011;13509;50.760;6.080;2023-02-27T14:21:57;3.33;;;1.77;;
9080;SDS011;13509;50.760;6.080;2023-02-27T14:24:30;4.00;;;1.63;;
9080;SDS011;13509;50.760;6.080;2023-02-27T14:27:01;2.27;;;1.60;;
9080;SDS011;13509;50.760;6.080;2023-02-27T14:29:31;2.07;;;1.50;;
9080;SDS011;13509;50.760;6.080;2023-02-27T14:32:01;4.13;;;1.60;;
9080;SDS011;13509;50.760;6.080;2023-02-27T14:34:32;2.87;;;1.50;;
9080;SDS011;13509;50.760;6.080;2023-02-27T14:37:03;4.47;;;1.67;;
9080;SDS011;13509;50.760;6.080;2023-02-27T14:39:35;3.00;;;1.70;;
9080;SDS011;13509;50.760;6.080;2023-02-27T14:42:07;3.03;;;1.70;;
9080;SDS011;13509;50.760;6.080;2023-02-27T14:44:39;5.63;;;2.13;;
9080;SDS011;13509;50.760;6.080;2023-02-27T14:47:11;4.90;;;1.70;;
9080;SDS011;13509;50.760;6.080;2023-02-27T14:49:40;2.17;;;1.90;;
9080;SDS011;13509;50.760;6.080;2023-02-27T14:52:10;5.00;;;1.67;;
9080;SDS011;13509;50.760;6.080;2023-02-27T14:54:39;5.53;;;2.13;;
9080;SDS011;13509;50.760;6.080;2023-02-27T14:57:13;4.30;;;1.50;;
9080;SDS011;13509;50.760;6.080;2023-02-27T14:59:43;3.47;;;1.47;;
9080;SDS011;13509;50.760;6.080;2023-02-27T15:02:15;3.47;;;1.60;;
9080;SDS011;13509;50.760;6.080;2023-02-27T15:04:43;3.77;;;1.70;;
9080;SDS011;13509;50.760;6.080;2023-02-27T15:07:15;2.90;;;1.33;;
9080;SDS011;13509;50.760;6.080;2023-02-27T15:09:46;2.53;;;1.50;;
9080;SDS011;13509;50.760;6.080;2023-02-27T15:12:15;3.50;;;1.50;;
9080;SDS011;13509;50.760;6.080;2023-02-27T15:14:45;2.27;;;1.57;;
9080;SDS011;13509;50.760;6.080;2023-02-27T15:17:18;1.97;;;1.40;;
9080;SDS011;13509;50.760;6.080;2023-02-27T15:19:49;2.33;;;1.43;;
9080;SDS011;13509;50.760;6.080;2023-02-27T15:22:19;3.13;;;1.60;;
9080;SDS011;13509;50.760;6.080;2023-02-27T15:25:05;4.07;;;1.70;;
9080;SDS011;13509;50.760;6.080;2023-02-27T15:27:33;3.70;;;1.53;;
9080;SDS011;13509;50.760;6.080;2023-02-27T15:30:03;2.77;;;1.60;;
9080;SDS011;13509;50.760;6.080;2023-02-27T15:32:35;5.77;;;1.40;;
9080;SDS011;13509;50.760;6.080;2023-02-27T15:35:04;2.67;;;1.60;;
9080;SDS011;13509;50.760;6.080;2023-02-27T15:37:33;3.07;;;1.47;;
9080;SDS011;13509;50.760;6.080;2023-02-27T15:40:01;4.20;;;1.80;;
9080;SDS011;13509;50.760;6.080;2023-02-27T15:42:33;7.23;;;1.57;;
9080;SDS011;13509;50.760;6.080;2023-02-27T15:45:02;2.33;;;1.37;;
9080;SDS011;13509;50.760;6.080;2023-02-27T15:47:31;3.97;;;1.70;;